LSME - Emmen, Switzerland
Distance from HB9FEE: SW 14km
Updated: Wed, 29-Mar-2017 8:50pm CEST
Clear
Clear
 Wind from varies
Wind: varies 4 km/h
Temperature: 12°C
Dew Point: 6°C
Humidity: 67%
Barometer: 1026 hPa
Clouds: Clear
Visibility: 16 miles
2017/03/29 18:50 LSME 291850Z AUTO VRB02KT 9999NDV NCD 12/06 Q1026 RMK
LSZC - Buochs, Switzerland
Distance from HB9FEE: S 25km
Updated: Wed, 29-Mar-2017 8:50pm CEST
Clear
Clear
 Wind from W
Wind: W 7 km/h
Temperature: 14°C
Dew Point: 6°C
Humidity: 59%
Barometer: 1026 hPa
Clouds: Clear
Visibility: 10 km
2017/03/29 18:50 LSZC 291850Z AUTO 28004KT 220V350 9999 NCD 14/06 Q1026
 
LSMA - Alpnach, Switzerland
Distance from HB9FEE: SSW 29km
Updated: Wed, 29-Mar-2017 8:50pm CEST
Clear
Clear
 Wind from S
Wind: S 7 km/h
Temperature: 11°C
Dew Point: 6°C
Humidity: 72%
Barometer: 1026 hPa
Clouds: Clear
Visibility: 16 miles
2017/03/29 18:50 LSMA 291850Z AUTO 19004KT 140V250 9999NDV NCD 11/06 Q1026 RMK
LSMD - Dubendorf, Switzerland
Distance from HB9FEE: NE 29km
Updated: Wed, 29-Mar-2017 8:50pm CEST
Clear
Clear
 Wind from SE
Wind: SE 4 km/h
Temperature: 13°C
Dew Point: 4°C
Humidity: 55%
Barometer: 1026 hPa
Clouds: Clear
Visibility: 16 miles
2017/03/29 18:50 LSMD 291850Z AUTO 14002KT 9999NDV NCD 13/04 Q1026 RMK
 
LSZH - Zurich-Kloten (a, Switzerland
Distance from HB9FEE: NNE 33km
Updated: Wed, 29-Mar-2017 8:50pm CEST
Clear
Clear
 Wind from NNW
Wind: NNW 7 km/h
Temperature: 15°C
Dew Point: 2°C
Humidity: 42%
Barometer: 1026 hPa
Summary: Clear
Visibility: greater than 10 km
2017/03/29 18:50 LSZH 291850Z 33004KT CAVOK 15/02 Q1026 NOSIG
LSMM - Meiringen, Switzerland
Distance from HB9FEE: SSW 54km
Updated: Wed, 29-Mar-2017 8:50pm CEST
Clear
Clear
 Wind from E
Wind: E 15 km/h
Temperature: 13°C
Dew Point: 6°C
Humidity: 63%
Barometer: 1026 hPa
Clouds: Clear
Visibility: 16 miles
2017/03/29 18:50 LSMM 291850Z AUTO 09008KT 9999NDV NCD 13/06 Q1026 RMK
 
LSZB - Bern/Belp, Switzerland
Distance from HB9FEE: WSW 76km
Updated: Wed, 29-Mar-2017 8:50pm CEST
Clear
Clear
 Wind from varies
Wind: varies 4 km/h
Temperature: 12°C
Dew Point: 6°C
Humidity: 67%
Barometer: 1026 hPa
Summary: Clear
Visibility: greater than 10 km
2017/03/29 18:50 LSZB 291850Z VRB02KT CAVOK 12/06 Q1026 NOSIG
LSZG - Grenchen, Switzerland
Distance from HB9FEE: W 76km
Updated: Wed, 29-Mar-2017 8:50pm CEST
Clear
Clear
 Wind from E
Wind: E 6 km/h
Temperature: 15°C
Dew Point: 5°C
Humidity: 51%
Barometer: 1026 hPa
Summary: Clear
Visibility: greater than 10 km
2017/03/29 18:50 LSZG 291850Z AUTO 09003KT CAVOK 15/05 Q1026
 
LFSB - Bale/Mulhouse, France
Distance from HB9FEE: NW 82km
Updated: Wed, 29-Mar-2017 8:30pm CEST
Clear
Clear
 Wind from NNW
Wind: NNW 6 km/h
Temperature: 14°C
Dew Point: 5°C
Humidity: 55%
Barometer: 1025 hPa
Summary: Clear
Visibility: greater than 10 km
2017/03/29 18:30 LFSB 291830Z 34003KT 290V030 CAVOK 14/05 Q1025 NOSIG
LSZR - Rheineck/Altenrh, Switzerland
Distance from HB9FEE: ENE 92km
Updated: Wed, 29-Mar-2017 8:50pm CEST
Clear
Clear
 Wind from SSW
Wind: SSW 6 km/h
Temperature: 14°C
Dew Point: 6°C
Humidity: 59%
Barometer: 1026 hPa
Summary: Clear
Visibility: greater than 10 km
2017/03/29 18:50 LSZR 291850Z 20003KT 170V230 CAVOK 14/06 Q1026 NOSIG RMK Q
 
LSZL - Locarno, Switzerland
Distance from HB9FEE: SSE 119km
Updated: Wed, 29-Mar-2017 8:50pm CEST
Clear
Clear
 Wind from varies
Wind: varies 4 km/h
Temperature: 15°C
Dew Point: 6°C
Humidity: 55%
Barometer: 1022 hPa
Clouds: Clear
Visibility: 16 miles
2017/03/29 18:50 LSZL 291850Z AUTO VRB02KT 9999NDV NCD 15/06 Q1022 RMK
LSMP - Payerne (mil/Aut, Switzerland
Distance from HB9FEE: WSW 121km
Updated: Wed, 29-Mar-2017 8:50pm CEST
Clear
Clear
 Wind from varies
Wind: varies 4 km/h
Temperature: 13°C
Dew Point: 7°C
Humidity: 67%
Barometer: 1026 hPa
Clouds: Clear
Visibility: 16 miles
2017/03/29 18:50 LSMP 291850Z AUTO VRB02KT 9999NDV NCD 13/07 Q1026 RMK
 
LSGC - Les Eplatures, Switzerland
Distance from HB9FEE: W 123km
Updated: Wed, 29-Mar-2017 8:50pm CEST
Clear
Clear
 Wind from varies
Wind: varies 2 km/h
Temperature: 7°C
Dew Point: 3°C
Humidity: 76%
Barometer: 1027 hPa
Clouds: Clear
2017/03/29 18:50 LSGC 291850Z AUTO VRB01KT //// // NCD 07/03 Q1027
LSZS - Samedan, Switzerland
Distance from HB9FEE: ESE 133km
Updated: Wed, 29-Mar-2017 8:50pm CEST
Clear
Clear
 Wind from varies
Wind: varies 6 km/h
Temperature: 3°C
Dew Point: -4°C
Humidity: 60%
Barometer: 1027 hPa
Clouds: Clear
Visibility: 10 km
2017/03/29 18:50 LSZS 291850Z AUTO VRB03KT 9999 NCD 03/M04 Q1027
 
LSGS - Sion (mil/Civ/Au, Switzerland
Distance from HB9FEE: SW 137km
Updated: Wed, 29-Mar-2017 8:50pm CEST
Clear
Clear
 Wind from varies
Wind: varies 4 km/h
Temperature: 16°C
Dew Point: 4°C
Humidity: 45%
Barometer: 1025 hPa
Clouds: Clear
Visibility: 9 km
2017/03/29 18:50 LSGS 291850Z AUTO VRB02KT 9000 NCD 16/04 Q1025
LSZA - Lugano (pvt/Aut), Switzerland
Distance from HB9FEE: SSE 138km
Updated: Wed, 29-Mar-2017 8:50pm CEST
Clear
Clear
 Wind from N
Wind: N 7 km/h
Temperature: 14°C
Dew Point: 6°C
Humidity: 59%
Barometer: 1023 hPa
Summary: Clear
Visibility: greater than 10 km
2017/03/29 18:50 LSZA 291850Z 36004KT 320V050 CAVOK 14/06 Q1023 NOSIG